Time;durP1;ratioP1;P1;durP2;ratioP2;P2;SDS_P1;SDS_P2;PMS_P1;PMS_P2;Temp;Humidity;BMP_temperature;BMP_pressure;BME280_temperature;BME280_humidity;BME280_pressure;Samples;Min_cycle;Max_cycle;Signal;HPM_P1;HPM_P2
2023/09/07 00:00:47;;;;;;;5.97;2.95;;;20.20;99.90;;;;;;7375852;19;20051;-68
2023/09/07 00:03:14;;;;;;;4.45;2.80;;;20.20;99.90;;;;;;7377877;19;20007;-68
2023/09/07 00:05:41;;;;;;;5.88;3.08;;;20.10;99.90;;;;;;7372307;19;20650;-68
2023/09/07 00:08:07;;;;;;;3.92;2.78;;;20.00;99.90;;;;;;7378613;19;20463;-68
2023/09/07 00:10:36;;;;;;;5.93;3.03;;;19.90;99.90;;;;;;7377535;19;20509;-67
2023/09/07 00:13:03;;;;;;;7.72;2.83;;;19.80;99.90;;;;;;7378298;19;20485;-66
2023/09/07 00:15:35;;;;;;;4.10;3.00;;;19.70;99.90;;;;;;7378329;19;20022;-62
2023/09/07 00:18:02;;;;;;;3.63;2.75;;;19.70;99.90;;;;;;7367490;19;20026;-62
2023/09/07 00:20:29;;;;;;;6.05;3.10;;;19.60;99.90;;;;;;7367649;19;20025;-62
2023/09/07 00:22:56;;;;;;;5.00;3.00;;;19.50;99.90;;;;;;7364799;19;20453;-62
2023/09/07 00:25:22;;;;;;;5.18;2.95;;;19.50;99.90;;;;;;7365501;19;20015;-61
2023/09/07 00:27:48;;;;;;;8.73;3.28;;;19.40;99.90;;;;;;7363318;19;20049;-61
2023/09/07 00:30:14;;;;;;;5.50;3.10;;;19.40;99.90;;;;;;7370141;19;20014;-62
2023/09/07 00:32:41;;;;;;;4.32;2.85;;;19.30;99.90;;;;;;7361524;19;20011;-61
2023/09/07 00:35:08;;;;;;;5.18;3.00;;;19.30;99.90;;;;;;7367631;19;20389;-61
2023/09/07 00:37:35;;;;;;;6.47;3.05;;;19.30;99.90;;;;;;7369254;19;20044;-61
2023/09/07 00:40:03;;;;;;;4.65;2.85;;;19.20;99.90;;;;;;7370230;19;20448;-61
2023/09/07 00:42:30;;;;;;;7.57;3.08;;;19.10;99.90;;;;;;7365115;19;20017;-61
2023/09/07 00:45:16;;;;;;;3.88;2.75;;;19.10;99.90;;;;;;7368340;19;20054;-61
2023/09/07 00:48:04;;;;;;;6.45;3.83;;;19.10;99.90;;;;;;7364338;19;20545;-60
2023/09/07 00:50:30;;;;;;;5.70;3.15;;;19.00;99.90;;;;;;7374642;19;20505;-61
2023/09/07 00:52:57;;;;;;;7.70;4.03;;;19.10;99.90;;;;;;7376178;19;20619;-61
2023/09/07 00:55:23;;;;;;;5.15;3.05;;;19.00;99.90;;;;;;7372380;19;20014;-60
2023/09/07 00:57:50;;;;;;;4.03;3.20;;;19.00;99.90;;;;;;7372827;19;20022;-61
2023/09/07 01:00:17;;;;;;;5.93;3.20;;;19.00;99.90;;;;;;7373273;19;20378;-61
2023/09/07 01:02:44;;;;;;;7.13;3.95;;;18.90;99.90;;;;;;7372689;19;20792;-61
2023/09/07 01:05:11;;;;;;;6.57;3.45;;;18.90;99.90;;;;;;7375405;19;20453;-60
2023/09/07 01:07:53;;;;;;;4.70;3.47;;;19.00;99.90;;;;;;7373550;19;20022;-61
2023/09/07 01:10:22;;;;;;;6.78;3.20;;;19.00;99.90;;;;;;7366174;19;20014;-63
2023/09/07 01:12:48;;;;;;;4.88;3.25;;;19.00;99.90;;;;;;7370502;19;20361;-61
2023/09/07 01:15:35;;;;;;;5.90;3.70;;;19.00;99.90;;;;;;7373161;19;20038;-61
2023/09/07 01:18:02;;;;;;;5.25;3.53;;;18.90;99.90;;;;;;7376428;19;20043;-61
2023/09/07 01:20:33;;;;;;;5.72;3.53;;;18.90;99.90;;;;;;7376265;19;20368;-62
2023/09/07 01:23:00;;;;;;;5.57;3.75;;;18.80;99.90;;;;;;7372773;19;20488;-62
2023/09/07 01:25:28;;;;;;;6.47;3.50;;;18.80;99.90;;;;;;7373160;19;20040;-61
2023/09/07 01:27:55;;;;;;;5.20;3.58;;;18.70;99.90;;;;;;7374223;19;20010;-61
2023/09/07 01:30:41;;;;;;;7.13;3.95;;;18.70;99.90;;;;;;7369563;19;20018;-61
2023/09/07 01:33:08;;;;;;;6.97;3.90;;;18.70;99.90;;;;;;7373406;19;20600;-61
2023/09/07 01:35:39;;;;;;;9.40;4.22;;;18.70;99.90;;;;;;7376635;19;20029;-67
2023/09/07 01:38:05;;;;;;;5.07;3.60;;;18.70;99.90;;;;;;7381784;19;20026;-67
2023/09/07 01:40:32;;;;;;;5.80;3.50;;;18.70;99.90;;;;;;7373581;19;20527;-60
2023/09/07 01:42:58;;;;;;;4.35;3.63;;;18.70;99.90;;;;;;7375239;19;20450;-66
2023/09/07 01:45:24;;;;;;;5.38;3.75;;;18.70;99.90;;;;;;7374671;19;20754;-61
2023/09/07 01:47:51;;;;;;;5.55;3.72;;;18.70;99.90;;;;;;7363387;19;20675;-61
2023/09/07 01:50:18;;;;;;;6.10;4.00;;;18.60;99.90;;;;;;7369843;19;20022;-61
2023/09/07 01:52:49;;;;;;;5.78;3.78;;;18.50;99.90;;;;;;7378682;19;20018;-67
2023/09/07 01:55:15;;;;;;;5.80;3.70;;;18.50;99.90;;;;;;7374514;19;20593;-61
2023/09/07 01:57:42;;;;;;;6.85;3.85;;;18.50;99.90;;;;;;7374042;19;20018;-61
2023/09/07 02:00:08;;;;;;;5.82;3.80;;;18.40;99.90;;;;;;7371240;19;20366;-61
2023/09/07 02:02:39;;;;;;;7.47;3.70;;;18.40;99.90;;;;;;7372577;19;20549;-61
2023/09/07 02:05:05;;;;;;;8.15;3.67;;;18.40;99.90;;;;;;7370976;19;20501;-62
2023/09/07 02:07:32;;;;;;;6.85;3.75;;;18.30;99.90;;;;;;7373499;19;20812;-61
2023/09/07 02:09:58;;;;;;;5.68;4.07;;;18.30;99.90;;;;;;7369405;19;20015;-61
2023/09/07 02:12:24;;;;;;;7.18;3.85;;;18.20;99.90;;;;;;7375801;19;20950;-61
2023/09/07 02:14:50;;;;;;;5.50;3.78;;;18.20;99.90;;;;;;7366118;19;20026;-62
2023/09/07 02:17:17;;;;;;;7.38;4.28;;;18.20;99.90;;;;;;7373877;19;20025;-61
2023/09/07 02:19:44;;;;;;;4.35;3.53;;;18.10;99.90;;;;;;7369562;19;20549;-60
2023/09/07 02:22:11;;;;;;;5.55;4.20;;;18.20;99.90;;;;;;7375674;19;20014;-61
2023/09/07 02:24:38;;;;;;;6.22;4.38;;;18.10;99.90;;;;;;7370938;19;20046;-61
2023/09/07 02:27:05;;;;;;;4.85;4.05;;;18.10;99.90;;;;;;7371017;19;20473;-61
2023/09/07 02:29:51;;;;;;;7.55;4.45;;;18.10;99.90;;;;;;7370487;19;20022;-61
2023/09/07 02:32:17;;;;;;;5.22;3.47;;;18.10;99.90;;;;;;7372592;19;20021;-61
2023/09/07 02:34:43;;;;;;;7.00;4.55;;;18.00;99.90;;;;;;7369225;19;20018;-62
2023/09/07 02:37:10;;;;;;;7.28;4.43;;;18.00;99.90;;;;;;7369846;19;20022;-61
2023/09/07 02:39:56;;;;;;;7.75;4.43;;;18.00;99.90;;;;;;7370057;19;20440;-61
2023/09/07 02:42:24;;;;;;;8.18;4.55;;;18.00;99.90;;;;;;7370436;19;20022;-62
2023/09/07 02:44:50;;;;;;;6.20;4.75;;;17.90;99.90;;;;;;7371592;19;20022;-62
2023/09/07 02:47:17;;;;;;;7.47;4.80;;;17.90;99.90;;;;;;7369140;19;20022;-61
2023/09/07 02:49:43;;;;;;;8.02;4.78;;;17.90;99.90;;;;;;7371477;19;20513;-62
2023/09/07 02:52:09;;;;;;;6.55;4.40;;;17.80;99.90;;;;;;7374741;19;20037;-61
2023/09/07 02:54:36;;;;;;;7.80;4.63;;;17.80;99.90;;;;;;7365836;19;20461;-61
2023/09/07 02:57:02;;;;;;;6.38;4.68;;;17.80;99.90;;;;;;7371130;19;20478;-61
2023/09/07 02:59:29;;;;;;;7.20;4.72;;;17.80;99.90;;;;;;7371780;19;20059;-61
2023/09/07 03:01:56;;;;;;;6.40;5.10;;;17.70;99.90;;;;;;7370670;19;20585;-60
2023/09/07 03:04:23;;;;;;;6.60;5.28;;;17.70;99.90;;;;;;7372620;19;20803;-61
2023/09/07 03:06:49;;;;;;;7.13;5.10;;;17.60;99.90;;;;;;7368973;19;20054;-61
2023/09/07 03:09:16;;;;;;;8.55;5.50;;;17.60;99.90;;;;;;7369261;19;20094;-61
2023/09/07 03:11:42;;;;;;;10.90;5.55;;;17.60;99.90;;;;;;7367083;19;20014;-61
2023/09/07 03:14:32;;;;;;;6.90;5.30;;;17.60;99.90;;;;;;7367404;19;20027;-62
2023/09/07 03:17:00;;;;;;;6.80;5.10;;;17.50;99.90;;;;;;7370309;19;20015;-61
2023/09/07 03:19:26;;;;;;;7.70;4.78;;;17.50;99.90;;;;;;7370298;19;20339;-62
2023/09/07 03:22:12;;;;;;;9.43;5.45;;;17.50;99.90;;;;;;7369831;19;20382;-61
2023/09/07 03:24:40;;;;;;;6.55;5.50;;;17.50;99.90;;;;;;7362041;19;20018;-61
2023/09/07 03:27:06;;;;;;;6.68;4.63;;;17.40;99.90;;;;;;7369992;19;20024;-61
2023/09/07 03:29:35;;;;;;;6.80;4.97;;;17.40;99.90;;;;;;7367104;19;20114;-61
2023/09/07 03:32:03;;;;;;;6.45;4.85;;;17.50;99.90;;;;;;7365686;19;20017;-61
2023/09/07 03:34:30;;;;;;;6.88;5.35;;;17.50;99.90;;;;;;7367585;19;20011;-62
2023/09/07 03:36:57;;;;;;;6.78;6.05;;;17.50;99.90;;;;;;7372738;19;20014;-61
2023/09/07 03:39:43;;;;;;;7.90;5.15;;;17.50;99.90;;;;;;7364935;19;20014;-61
2023/09/07 03:42:09;;;;;;;8.82;5.63;;;17.40;99.90;;;;;;7370256;19;20489;-61
2023/09/07 03:44:36;;;;;;;7.88;6.05;;;17.40;99.90;;;;;;7366129;19;20378;-61
2023/09/07 03:47:03;;;;;;;7.35;5.45;;;17.40;99.90;;;;;;7370837;19;20018;-61
2023/09/07 03:49:30;;;;;;;8.35;5.78;;;17.40;99.90;;;;;;7368360;19;20098;-61
2023/09/07 03:52:16;;;;;;;7.90;6.10;;;17.30;99.90;;;;;;7369046;19;20492;-61
2023/09/07 03:54:42;;;;;;;8.15;5.63;;;17.30;99.90;;;;;;7365339;19;20440;-61
2023/09/07 03:57:08;;;;;;;6.20;5.35;;;17.30;99.90;;;;;;7369484;19;20022;-61
2023/09/07 03:59:35;;;;;;;10.85;6.28;;;17.30;99.90;;;;;;7363163;19;20430;-61
2023/09/07 04:02:21;;;;;;;7.30;6.10;;;17.30;99.90;;;;;;7368705;19;20022;-61
2023/09/07 04:05:10;;;;;;;7.32;6.18;;;17.40;99.90;;;;;;7368111;19;20767;-61
2023/09/07 04:07:37;;;;;;;8.98;6.90;;;17.30;99.90;;;;;;7368112;19;21094;-61
2023/09/07 04:10:05;;;;;;;8.00;6.00;;;17.30;99.90;;;;;;7371406;19;20039;-61
2023/09/07 04:12:33;;;;;;;9.90;6.05;;;17.30;99.90;;;;;;7367938;19;20859;-62
2023/09/07 04:15:04;;;;;;;7.57;5.82;;;17.30;99.90;;;;;;7368408;19;20494;-68
2023/09/07 04:17:39;;;;;;;8.05;5.97;;;17.30;99.90;;;;;;7370099;19;20025;-68
2023/09/07 04:20:08;;;;;;;9.30;6.28;;;17.20;99.90;;;;;;7373600;19;20271;-68
2023/09/07 04:22:35;;;;;;;9.13;6.57;;;17.20;99.90;;;;;;7369245;19;20021;-66
2023/09/07 04:25:03;;;;;;;7.65;6.60;;;17.10;99.90;;;;;;7370707;19;20101;-66
2023/09/07 04:27:31;;;;;;;7.57;6.63;;;17.10;99.90;;;;;;7382298;19;20016;-66
2023/09/07 04:29:57;;;;;;;9.68;6.47;;;17.00;99.90;;;;;;7373332;19;20354;-60
2023/09/07 04:32:25;;;;;;;10.20;6.68;;;17.00;99.90;;;;;;7375822;19;20365;-62
2023/09/07 04:34:56;;;;;;;10.13;6.97;;;16.90;99.90;;;;;;7370302;19;20006;-61
2023/09/07 04:37:43;;;;;;;10.50;6.72;;;16.90;99.90;;;;;;7374668;19;20007;-66
2023/09/07 04:40:11;;;;;;;7.40;6.30;;;16.90;99.90;;;;;;7381164;19;20492;-61
2023/09/07 04:42:38;;;;;;;8.45;7.07;;;16.90;99.90;;;;;;7378754;19;20052;-67
2023/09/07 04:45:08;;;;;;;7.47;6.75;;;16.80;99.90;;;;;;7379086;19;20592;-67
2023/09/07 04:47:34;;;;;;;9.85;7.18;;;16.80;99.90;;;;;;7378286;19;20037;-67
2023/09/07 04:50:01;;;;;;;7.93;7.13;;;16.80;99.90;;;;;;7380910;19;20019;-67
2023/09/07 04:52:27;;;;;;;9.48;7.05;;;16.80;99.90;;;;;;7380558;19;20482;-66
2023/09/07 04:54:53;;;;;;;9.27;6.53;;;16.80;99.90;;;;;;7374831;19;20021;-68
2023/09/07 04:57:19;;;;;;;9.77;6.90;;;16.70;99.90;;;;;;7379628;19;20330;-65
2023/09/07 04:59:47;;;;;;;10.02;7.85;;;16.70;99.90;;;;;;7377484;19;20375;-68
2023/09/07 05:02:13;;;;;;;9.95;7.15;;;16.70;99.90;;;;;;7375362;19;20106;-65
2023/09/07 05:04:40;;;;;;;8.55;7.20;;;16.70;99.90;;;;;;7374857;19;20015;-61
2023/09/07 05:07:06;;;;;;;10.25;7.28;;;16.70;99.90;;;;;;7374407;19;20026;-61
2023/09/07 05:09:33;;;;;;;7.70;6.57;;;16.70;99.90;;;;;;7376193;19;20103;-68
2023/09/07 05:12:00;;;;;;;10.98;7.95;;;16.70;99.90;;;;;;7372532;19;20029;-60
2023/09/07 05:14:27;;;;;;;12.52;7.57;;;16.70;99.90;;;;;;7379124;19;20110;-65
2023/09/07 05:16:55;;;;;;;8.98;7.90;;;16.70;99.90;;;;;;7376341;19;20022;-66
2023/09/07 05:19:21;;;;;;;10.43;7.43;;;16.70;99.90;;;;;;7379993;19;20018;-66
2023/09/07 05:21:48;;;;;;;10.68;7.70;;;16.70;99.90;;;;;;7375261;19;20019;-66
2023/09/07 05:24:18;;;;;;;11.40;8.30;;;16.70;99.90;;;;;;7378216;19;20018;-66
2023/09/07 05:26:45;;;;;;;13.93;7.75;;;16.70;99.90;;;;;;7376628;19;20565;-66
2023/09/07 05:29:12;;;;;;;14.40;7.95;;;16.70;99.90;;;;;;7374615;19;20576;-66
2023/09/07 05:31:38;;;;;;;8.05;7.15;;;16.80;99.90;;;;;;7379308;19;20534;-67
2023/09/07 05:34:05;;;;;;;8.80;7.90;;;16.80;99.90;;;;;;7376178;19;20020;-67
2023/09/07 05:36:31;;;;;;;12.23;8.48;;;16.80;99.90;;;;;;7377167;19;20499;-67
2023/09/07 05:38:59;;;;;;;8.10;7.25;;;16.90;99.90;;;;;;7376029;19;20022;-67
2023/09/07 05:41:25;;;;;;;9.75;7.82;;;17.00;99.90;;;;;;7379169;19;20106;-66
2023/09/07 05:43:53;;;;;;;8.68;7.28;;;17.10;99.90;;;;;;7374190;19;20391;-67
2023/09/07 05:46:20;;;;;;;10.20;7.25;;;17.20;99.90;;;;;;7378635;19;20489;-67
2023/09/07 05:48:46;;;;;;;10.30;7.80;;;17.30;99.90;;;;;;7375758;19;20018;-68
2023/09/07 05:51:12;;;;;;;9.35;7.22;;;17.40;99.90;;;;;;7377866;19;20577;-68
2023/09/07 05:53:39;;;;;;;8.15;6.75;;;17.50;99.90;;;;;;7377514;19;20033;-66
2023/09/07 05:56:05;;;;;;;7.68;6.20;;;17.70;99.90;;;;;;7379306;19;20018;-66
2023/09/07 05:58:33;;;;;;;10.32;6.97;;;17.90;99.90;;;;;;7379388;19;20019;-67
2023/09/07 06:01:00;;;;;;;7.53;6.47;;;18.00;99.90;;;;;;7381639;19;20014;-67
2023/09/07 06:03:26;;;;;;;9.07;6.82;;;18.10;99.90;;;;;;7381380;19;20046;-67
2023/09/07 06:05:52;;;;;;;7.15;6.15;;;18.30;99.90;;;;;;7377090;19;20030;-61
2023/09/07 06:08:19;;;;;;;8.15;6.85;;;18.40;99.90;;;;;;7371881;19;20014;-68
2023/09/07 06:10:45;;;;;;;8.50;6.47;;;18.80;99.90;;;;;;7369420;19;20030;-69
2023/09/07 06:13:11;;;;;;;9.63;6.13;;;19.00;99.90;;;;;;7366204;19;20568;-69
2023/09/07 06:15:38;;;;;;;8.07;7.22;;;19.10;99.90;;;;;;7370746;19;20025;-69
2023/09/07 06:18:24;;;;;;;86.13;77.15;;;19.40;99.90;;;;;;7369870;19;20041;-67
2023/09/07 06:20:50;;;;;;;9.43;7.47;;;19.60;99.90;;;;;;7373951;19;20102;-68
2023/09/07 06:23:17;;;;;;;10.25;8.55;;;19.90;99.90;;;;;;7374522;19;20469;-67
2023/09/07 06:25:43;;;;;;;17.30;11.52;;;20.10;99.90;;;;;;7375498;19;20022;-68
2023/09/07 06:28:10;;;;;;;10.18;7.65;;;20.40;99.90;;;;;;7374991;19;20014;-67
2023/09/07 06:30:37;;;;;;;25.30;22.60;;;20.60;99.90;;;;;;7370029;19;20011;-68
2023/09/07 06:33:04;;;;;;;7.20;5.82;;;20.90;99.90;;;;;;7373302;19;20015;-60
2023/09/07 06:35:31;;;;;;;11.57;9.93;;;21.00;99.90;;;;;;7370726;19;20525;-61
2023/09/07 06:37:57;;;;;;;8.85;6.07;;;21.10;99.90;;;;;;7369663;19;20034;-62
2023/09/07 06:40:26;;;;;;;9.38;5.28;;;21.20;99.90;;;;;;7371040;19;20018;-60
2023/09/07 06:42:57;;;;;;;32.60;29.17;;;21.30;99.90;;;;;;7369214;19;20021;-62
2023/09/07 06:45:25;;;;;;;12.50;9.60;;;21.50;99.90;;;;;;7372350;19;20295;-62
2023/09/07 06:47:52;;;;;;;15.07;12.48;;;21.60;99.90;;;;;;7367971;19;20478;-62
2023/09/07 06:50:21;;;;;;;14.45;12.95;;;21.80;99.90;;;;;;7371402;19;20015;-62
2023/09/07 06:53:08;;;;;;;11.00;9.57;;;22.00;99.90;;;;;;7373325;19;20015;-62
2023/09/07 06:55:35;;;;;;;8.07;6.18;;;22.30;99.90;;;;;;7370494;19;20382;-62
2023/09/07 06:58:21;;;;;;;20.35;17.65;;;22.40;99.90;;;;;;7372281;19;20018;-62
2023/09/07 07:00:48;;;;;;;11.00;9.43;;;22.60;99.90;;;;;;7370507;19;20236;-61
2023/09/07 07:03:15;;;;;;;9.07;7.90;;;22.90;99.90;;;;;;7376073;19;20018;-61
2023/09/07 07:05:42;;;;;;;6.55;5.40;;;23.10;99.90;;;;;;7369986;19;20018;-61
2023/09/07 07:08:09;;;;;;;7.80;5.00;;;23.40;99.90;;;;;;7367695;19;20561;-65
2023/09/07 07:10:36;;;;;;;29.67;26.65;;;23.70;99.90;;;;;;7369138;19;20411;-62
2023/09/07 07:13:22;;;;;;;45.25;40.78;;;24.00;99.90;;;;;;7366566;19;20018;-61
2023/09/07 07:15:48;;;;;;;6.05;4.68;;;24.30;99.90;;;;;;7370878;19;20167;-61
2023/09/07 07:18:15;;;;;;;7.45;6.63;;;24.60;99.90;;;;;;7369798;19;20025;-61
2023/09/07 07:20:45;;;;;;;22.17;20.00;;;25.10;99.90;;;;;;7368000;19;20349;-61
2023/09/07 07:23:12;;;;;;;9.40;6.80;;;25.30;99.90;;;;;;7369973;19;20033;-61
2023/09/07 07:25:39;;;;;;;5.80;4.80;;;25.80;99.90;;;;;;7366604;19;20031;-61
2023/09/07 07:28:25;;;;;;;10.38;8.15;;;25.90;99.90;;;;;;7371579;19;20014;-62
2023/09/07 07:30:53;;;;;;;34.97;31.60;;;25.90;99.90;;;;;;7366525;19;20017;-59
2023/09/07 07:33:20;;;;;;;16.42;13.15;;;26.30;99.90;;;;;;7369015;19;20018;-58
2023/09/07 07:35:48;;;;;;;11.00;9.65;;;26.70;99.90;;;;;;7368752;19;20022;-60
2023/09/07 07:38:35;;;;;;;8.13;5.03;;;26.90;99.90;;;;;;7368141;19;20557;-62
2023/09/07 07:41:02;;;;;;;11.35;9.60;;;26.80;99.90;;;;;;7368589;19;20879;-62
2023/09/07 07:43:28;;;;;;;7.22;6.50;;;27.00;99.90;;;;;;7372450;19;20022;-60
2023/09/07 07:45:55;;;;;;;9.45;7.93;;;27.00;99.70;;;;;;7369646;19;20022;-64
2023/09/07 07:48:23;;;;;;;13.90;11.77;;;27.40;99.70;;;;;;7369794;19;20145;-63
2023/09/07 07:50:49;;;;;;;6.78;5.50;;;27.40;99.30;;;;;;7367793;19;20362;-64
2023/09/07 07:53:16;;;;;;;5.03;3.88;;;27.60;98.70;;;;;;7369778;19;20006;-64
2023/09/07 07:56:04;;;;;;;8.30;4.93;;;27.80;98.40;;;;;;7367169;19;20022;-72
2023/09/07 07:58:31;;;;;;;6.70;3.88;;;28.40;97.60;;;;;;7370317;19;20034;-65
2023/09/07 08:00:58;;;;;;;7.07;4.10;;;28.80;97.00;;;;;;7373377;19;20390;-66
2023/09/07 08:03:28;;;;;;;6.15;4.32;;;28.90;96.10;;;;;;7380462;19;20482;-66
2023/09/07 08:05:54;;;;;;;9.50;4.10;;;29.00;94.20;;;;;;7373148;19;20631;-67
2023/09/07 08:08:21;;;;;;;9.57;8.15;;;29.20;92.20;;;;;;7375277;19;20042;-68
2023/09/07 08:10:48;;;;;;;14.57;13.10;;;29.30;92.40;;;;;;7373364;19;20018;-69
2023/09/07 08:13:14;;;;;;;9.52;6.53;;;29.70;91.10;;;;;;7381030;19;20430;-65
2023/09/07 08:15:42;;;;;;;8.75;7.78;;;30.00;90.30;;;;;;7380690;19;20572;-73
2023/09/07 08:18:09;;;;;;;6.32;4.57;;;30.00;87.90;;;;;;7378063;19;20530;-73
2023/09/07 08:20:40;;;;;;;5.15;3.40;;;30.10;87.10;;;;;;7379506;19;20026;-73
2023/09/07 08:23:08;;;;;;;6.85;4.10;;;30.30;84.60;;;;;;7377791;19;20018;-66
2023/09/07 08:25:35;;;;;;;6.10;3.55;;;30.10;82.90;;;;;;7373283;19;20022;-65
2023/09/07 08:28:05;;;;;;;7.85;3.85;;;30.30;81.00;;;;;;7373498;19;20580;-65
2023/09/07 08:30:34;;;;;;;7.20;3.73;;;30.40;79.30;;;;;;7373379;19;20098;-65
2023/09/07 08:33:02;;;;;;;5.83;3.90;;;30.50;78.60;;;;;;7375137;19;20370;-66
2023/09/07 08:35:28;;;;;;;6.20;3.50;;;30.80;77.70;;;;;;7374036;19;20028;-66
2023/09/07 08:37:57;;;;;;;5.93;4.25;;;31.10;77.60;;;;;;7374331;19;20370;-67
2023/09/07 08:40:27;;;;;;;5.93;4.40;;;30.90;75.40;;;;;;7370631;19;20039;-71
2023/09/07 08:42:53;;;;;;;7.60;4.40;;;31.20;75.40;;;;;;7374613;19;20014;-71
2023/09/07 08:45:22;;;;;;;6.50;4.47;;;31.10;74.90;;;;;;7374449;19;20429;-71
2023/09/07 08:48:12;;;;;;;9.00;6.45;;;31.40;73.10;;;;;;7374341;19;20465;-72
2023/09/07 08:50:40;;;;;;;;;;;31.20;70.90;;;;;;7373910;19;20023;-71
2023/09/07 08:53:08;;;;;;;5.88;4.00;;;31.30;69.80;;;;;;7374289;19;19923;-65
2023/09/07 08:55:34;;;;;;;5.20;3.85;;;31.10;69.90;;;;;;7374657;19;20019;-64
2023/09/07 08:58:01;;;;;;;5.50;4.10;;;31.30;67.00;;;;;;7373249;19;20457;-65
2023/09/07 09:00:27;;;;;;;9.88;4.88;;;31.40;69.50;;;;;;7372201;19;20014;-64
2023/09/07 09:02:55;;;;;;;8.02;4.55;;;31.10;67.90;;;;;;7373664;19;20021;-65
2023/09/07 09:05:43;;;;;;;7.18;4.60;;;31.20;68.00;;;;;;7372812;19;20086;-64
2023/09/07 09:08:09;;;;;;;9.45;7.63;;;31.40;67.50;;;;;;7373606;19;20019;-66
2023/09/07 09:10:39;;;;;;;11.38;8.32;;;31.70;67.90;;;;;;7369231;19;20038;-64
2023/09/07 09:13:06;;;;;;;20.17;18.08;;;31.80;67.30;;;;;;7370182;19;20497;-64
2023/09/07 09:15:32;;;;;;;13.98;11.60;;;32.00;67.00;;;;;;7371423;19;20014;-65
2023/09/07 09:18:08;;;;;;;14.15;11.32;;;32.20;64.50;;;;;;7373071;19;20030;-65
2023/09/07 09:20:34;;;;;;;8.57;7.60;;;31.90;64.60;;;;;;7374485;19;20022;-65
2023/09/07 09:23:04;;;;;;;5.90;5.00;;;32.10;64.40;;;;;;7372776;19;20462;-65
2023/09/07 09:25:31;;;;;;;13.63;11.23;;;32.20;63.40;;;;;;7370058;19;20024;-64
2023/09/07 09:27:57;;;;;;;7.38;5.47;;;32.00;64.30;;;;;;7372021;19;20017;-64
2023/09/07 09:30:25;;;;;;;6.93;5.78;;;32.30;65.10;;;;;;7372254;19;20078;-65
2023/09/07 09:33:11;;;;;;;5.90;4.25;;;32.50;62.60;;;;;;7370690;19;20027;-65
2023/09/07 09:35:38;;;;;;;6.43;4.68;;;32.80;62.30;;;;;;7374687;19;20011;-65
2023/09/07 09:38:05;;;;;;;4.57;3.47;;;32.80;61.70;;;;;;7371807;19;20014;-64
2023/09/07 09:40:34;;;;;;;5.55;4.43;;;32.80;61.40;;;;;;7373178;19;20348;-62
2023/09/07 09:43:05;;;;;;;14.32;12.88;;;32.90;60.40;;;;;;7371797;19;20014;-64
2023/09/07 09:45:33;;;;;;;7.10;5.55;;;33.20;60.20;;;;;;7372276;19;20022;-64
2023/09/07 09:48:03;;;;;;;11.07;6.28;;;33.50;59.90;;;;;;7371848;19;20044;-64
2023/09/07 09:50:30;;;;;;;7.00;5.15;;;33.60;60.30;;;;;;7370890;19;20021;-65
2023/09/07 09:52:58;;;;;;;7.43;4.38;;;33.50;60.50;;;;;;7372018;19;20026;-64
2023/09/07 09:55:24;;;;;;;8.32;7.35;;;33.70;57.70;;;;;;7370411;19;20018;-66
2023/09/07 09:57:51;;;;;;;6.57;3.92;;;34.00;58.10;;;;;;7371248;19;20073;-63
2023/09/07 10:00:25;;;;;;;7.07;5.53;;;34.00;58.40;;;;;;7368507;19;20026;-64
2023/09/07 10:02:59;;;;;;;7.47;4.38;;;34.30;56.80;;;;;;7366455;19;20025;-64
2023/09/07 10:05:48;;;;;;;6.28;3.78;;;33.60;56.60;;;;;;7369966;19;20382;-64
2023/09/07 10:08:17;;;;;;;6.80;3.60;;;34.10;56.40;;;;;;7368948;19;20130;-64
2023/09/07 10:10:47;;;;;;;6.55;4.20;;;33.90;56.10;;;;;;7369664;19;20078;-64
2023/09/07 10:13:15;;;;;;;5.80;4.00;;;34.00;56.30;;;;;;7365269;19;20088;-65
2023/09/07 10:15:41;;;;;;;5.95;3.92;;;34.00;56.30;;;;;;7370556;19;20835;-65
2023/09/07 10:18:11;;;;;;;5.63;3.88;;;34.60;56.50;;;;;;7368518;19;20074;-62
2023/09/07 10:20:58;;;;;;;6.43;3.50;;;35.10;54.10;;;;;;7367351;19;20038;-65
2023/09/07 10:23:39;;;;;;;5.65;4.47;;;34.80;53.20;;;;;;7362931;19;20490;-64
2023/09/07 10:26:14;;;;;;;5.88;3.40;;;34.80;54.30;;;;;;7367202;19;20556;-64
2023/09/07 10:28:43;;;;;;;6.45;3.35;;;35.30;52.70;;;;;;7368716;19;20841;-64
2023/09/07 10:31:30;;;;;;;5.17;3.47;;;35.30;52.60;;;;;;7367291;19;20443;-64
2023/09/07 10:34:07;;;;;;;5.43;3.17;;;35.60;53.10;;;;;;7368461;19;20426;-64
2023/09/07 10:36:56;;;;;;;7.68;4.00;;;35.40;51.40;;;;;;7364930;19;20014;-63
2023/09/07 10:39:22;;;;;;;6.68;3.55;;;35.30;52.30;;;;;;7372183;19;20591;-63
2023/09/07 10:41:49;;;;;;;7.20;3.72;;;35.50;52.10;;;;;;7367292;19;20014;-64
2023/09/07 10:44:15;;;;;;;5.63;3.35;;;35.70;50.40;;;;;;7370855;19;20010;-64
2023/09/07 10:47:04;;;;;;;7.55;3.40;;;35.20;51.20;;;;;;7365453;19;20358;-63
2023/09/07 10:49:30;;;;;;;10.75;4.53;;;35.40;51.60;;;;;;7369040;19;20010;-62
2023/09/07 10:51:57;;;;;;;6.68;6.03;;;35.70;50.90;;;;;;7368489;19;20022;-63
2023/09/07 10:54:25;;;;;;;7.65;5.32;;;35.50;51.50;;;;;;7369350;19;20018;-67
2023/09/07 10:56:51;;;;;;;7.53;6.68;;;35.80;51.20;;;;;;7363837;19;20042;-67
2023/09/07 10:59:18;;;;;;;10.13;9.10;;;35.70;50.80;;;;;;7367799;19;20461;-63
2023/09/07 11:01:45;;;;;;;9.10;6.18;;;36.10;51.20;;;;;;7370214;19;20466;-66
2023/09/07 11:04:12;;;;;;;10.88;8.25;;;36.00;51.50;;;;;;7366982;19;20479;-63
2023/09/07 11:06:40;;;;;;;6.75;5.90;;;35.60;50.80;;;;;;7368019;19;20018;-64
2023/09/07 11:09:10;;;;;;;7.72;5.18;;;35.80;51.70;;;;;;7368318;19;20272;-65
2023/09/07 11:11:37;;;;;;;7.22;4.05;;;35.40;51.40;;;;;;7364190;19;20435;-63
2023/09/07 11:14:04;;;;;;;7.90;5.38;;;35.50;50.80;;;;;;7368631;19;20035;-62
2023/09/07 11:16:33;;;;;;;9.90;8.90;;;35.80;50.60;;;;;;7368692;19;20010;-64
2023/09/07 11:19:06;;;;;;;7.20;3.97;;;36.10;50.70;;;;;;7368274;19;20472;-64
2023/09/07 11:21:35;;;;;;;5.47;3.13;;;36.30;50.40;;;;;;7371193;19;20014;-63
2023/09/07 11:24:05;;;;;;;6.63;3.58;;;36.30;48.80;;;;;;7364076;19;20039;-63
2023/09/07 11:26:46;;;;;;;7.75;5.57;;;36.10;49.00;;;;;;7369109;19;20018;-69
2023/09/07 11:29:16;;;;;;;5.50;3.30;;;36.10;48.80;;;;;;7364937;19;20365;-67
2023/09/07 11:31:44;;;;;;;;;;;35.80;47.80;;;;;;7372357;19;20107;-68
2023/09/07 11:34:12;;;;;;;6.40;4.20;;;35.80;48.80;;;;;;7359258;19;19967;-68
2023/09/07 11:36:40;;;;;;;6.00;3.90;;;36.10;48.30;;;;;;7367196;19;20015;-68
2023/09/07 11:39:26;;;;;;;8.60;3.92;;;35.70;48.00;;;;;;7364222;19;20090;-69
2023/09/07 11:41:53;;;;;;;6.43;3.35;;;35.90;48.30;;;;;;7366172;19;20540;-68
2023/09/07 11:44:19;;;;;;;6.63;3.17;;;36.30;49.00;;;;;;7364375;19;20531;-68
2023/09/07 11:47:05;;;;;;;7.05;3.40;;;36.40;48.20;;;;;;7370413;19;20019;-74
2023/09/07 11:49:32;;;;;;;5.65;3.50;;;36.40;48.60;;;;;;7369065;19;20367;-75
2023/09/07 11:51:59;;;;;;;7.00;3.60;;;36.70;48.00;;;;;;7368476;19;20023;-69
2023/09/07 11:54:27;;;;;;;10.23;3.53;;;36.70;47.70;;;;;;7360355;19;20010;-65
2023/09/07 11:56:53;;;;;;;10.52;7.30;;;36.60;47.70;;;;;;7364850;19;20033;-69
2023/09/07 11:59:19;;;;;;;6.90;3.97;;;37.20;47.70;;;;;;7356261;19;20457;-72
2023/09/07 12:01:46;;;;;;;11.55;10.40;;;37.20;46.90;;;;;;7360386;19;20057;-70
2023/09/07 12:04:12;;;;;;;10.55;9.48;;;37.10;47.10;;;;;;7361459;19;20554;-70
2023/09/07 12:06:38;;;;;;;8.38;4.82;;;37.20;46.70;;;;;;7363613;19;20090;-67
2023/09/07 12:09:09;;;;;;;8.60;6.50;;;37.40;46.50;;;;;;7361096;19;20556;-70
2023/09/07 12:11:36;;;;;;;11.05;9.18;;;37.30;46.90;;;;;;7356968;19;20072;-67
2023/09/07 12:14:03;;;;;;;8.32;5.18;;;36.90;46.70;;;;;;7360128;19;20043;-68
2023/09/07 12:16:49;;;;;;;7.10;5.82;;;36.90;45.60;;;;;;7363138;19;20479;-66
2023/09/07 12:19:16;;;;;;;7.43;5.22;;;37.10;46.30;;;;;;7366674;19;20355;-65
2023/09/07 12:21:45;;;;;;;5.78;3.58;;;37.10;43.80;;;;;;7358029;19;20386;-69
2023/09/07 12:24:12;;;;;;;9.77;8.02;;;37.40;44.30;;;;;;7365380;19;20098;-69
2023/09/07 12:26:38;;;;;;;4.90;3.75;;;37.20;44.40;;;;;;7363981;19;20118;-69
2023/09/07 12:29:05;;;;;;;7.38;5.72;;;37.30;44.60;;;;;;7364213;19;20106;-69
2023/09/07 12:31:31;;;;;;;8.02;7.18;;;37.10;44.70;;;;;;7360385;19;20026;-73
2023/09/07 12:34:17;;;;;;;8.57;7.72;;;37.70;45.20;;;;;;7361896;19;20673;-66
2023/09/07 12:36:44;;;;;;;9.02;8.10;;;37.20;43.30;;;;;;7359473;19;20029;-69
2023/09/07 12:39:12;;;;;;;5.22;4.05;;;37.40;43.90;;;;;;7364232;19;20098;-69
2023/09/07 12:41:39;;;;;;;8.35;7.57;;;37.50;43.20;;;;;;7359341;19;20024;-70
2023/09/07 12:44:06;;;;;;;26.45;24.15;;;37.30;44.10;;;;;;7361676;19;20414;-70
2023/09/07 12:46:32;;;;;;;9.05;6.38;;;37.60;44.30;;;;;;7365387;19;20564;-69
2023/09/07 12:49:18;;;;;;;8.07;5.10;;;37.70;43.10;;;;;;7369790;19;20082;-69
2023/09/07 12:51:48;;;;;;;8.40;7.03;;;37.80;43.10;;;;;;7366883;19;20611;-68
2023/09/07 12:54:15;;;;;;;5.55;4.25;;;37.50;43.10;;;;;;7370501;19;20087;-69
2023/09/07 12:56:41;;;;;;;6.25;3.92;;;37.70;43.60;;;;;;7367948;19;20489;-69